sensor_id;sensor_type;location;lat;lon;timestamp;pressure;altitude;pressure_sealevel;temperature;humidity
26657;BME280;14279;50.010;8.260;2024-02-14T00:00:52;100811.69;;;8.03;69.88
26657;BME280;14279;50.010;8.260;2024-02-14T00:03:17;100814.25;;;8.04;69.96
26657;BME280;14279;50.010;8.260;2024-02-14T00:05:43;100809.19;;;8.00;70.24
26657;BME280;14279;50.010;8.260;2024-02-14T00:08:09;100804.72;;;8.05;70.64
26657;BME280;14279;50.010;8.260;2024-02-14T00:10:34;100797.75;;;8.07;70.79
26657;BME280;14279;50.010;8.260;2024-02-14T00:12:59;100803.09;;;8.01;71.57
26657;BME280;14279;50.010;8.260;2024-02-14T00:15:25;100792.63;;;8.05;71.10
26657;BME280;14279;50.010;8.260;2024-02-14T00:17:50;100787.47;;;8.04;71.03
26657;BME280;14279;50.010;8.260;2024-02-14T00:20:16;100781.75;;;7.92;71.77
26657;BME280;14279;50.010;8.260;2024-02-14T00:22:41;100779.16;;;7.92;71.72
26657;BME280;14279;50.010;8.260;2024-02-14T00:25:06;100770.53;;;7.92;71.99
26657;BME280;14279;50.010;8.260;2024-02-14T00:27:32;100782.34;;;8.02;72.21
26657;BME280;14279;50.010;8.260;2024-02-14T00:29:57;100775.97;;;8.12;71.34
26657;BME280;14279;50.010;8.260;2024-02-14T00:32:22;100777.25;;;7.99;71.13
26657;BME280;14279;50.010;8.260;2024-02-14T00:34:48;100771.00;;;8.06;71.75
26657;BME280;14279;50.010;8.260;2024-02-14T00:37:15;100776.75;;;8.16;71.70
26657;BME280;14279;50.010;8.260;2024-02-14T00:39:40;100786.31;;;8.14;71.60
26657;BME280;14279;50.010;8.260;2024-02-14T00:42:05;100783.66;;;8.16;71.56
26657;BME280;14279;50.010;8.260;2024-02-14T00:44:30;100778.47;;;8.16;72.07
26657;BME280;14279;50.010;8.260;2024-02-14T00:46:57;100779.66;;;8.05;71.76
26657;BME280;14279;50.010;8.260;2024-02-14T00:49:24;100774.69;;;7.97;71.93
26657;BME280;14279;50.010;8.260;2024-02-14T00:51:49;100771.03;;;8.05;72.07
26657;BME280;14279;50.010;8.260;2024-02-14T00:54:14;100764.19;;;8.02;71.91
26657;BME280;14279;50.010;8.260;2024-02-14T00:56:40;100773.47;;;8.09;72.14
26657;BME280;14279;50.010;8.260;2024-02-14T00:59:05;100764.19;;;8.02;72.58
26657;BME280;14279;50.010;8.260;2024-02-14T01:01:31;100756.19;;;8.10;72.62
26657;BME280;14279;50.010;8.260;2024-02-14T01:03:56;100762.44;;;8.03;72.06
26657;BME280;14279;50.010;8.260;2024-02-14T01:06:21;100754.56;;;8.06;72.25
26657;BME280;14279;50.010;8.260;2024-02-14T01:08:46;100751.00;;;8.10;71.80
26657;BME280;14279;50.010;8.260;2024-02-14T01:11:12;100749.16;;;8.13;71.82
26657;BME280;14279;50.010;8.260;2024-02-14T01:13:37;100753.34;;;8.18;72.16
26657;BME280;14279;50.010;8.260;2024-02-14T01:16:03;100759.25;;;8.23;71.43
26657;BME280;14279;50.010;8.260;2024-02-14T01:18:29;100756.84;;;8.17;71.76
26657;BME280;14279;50.010;8.260;2024-02-14T01:20:55;100759.84;;;8.33;71.81
26657;BME280;14279;50.010;8.260;2024-02-14T01:23:20;100767.38;;;8.40;70.27
26657;BME280;14279;50.010;8.260;2024-02-14T01:25:45;100765.59;;;8.42;70.65
26657;BME280;14279;50.010;8.260;2024-02-14T01:28:11;100762.00;;;8.47;70.92
26657;BME280;14279;50.010;8.260;2024-02-14T01:30:36;100757.16;;;8.36;71.53
26657;BME280;14279;50.010;8.260;2024-02-14T01:33:02;100762.19;;;8.40;71.28
26657;BME280;14279;50.010;8.260;2024-02-14T01:35:29;100759.56;;;8.42;71.17
26657;BME280;14279;50.010;8.260;2024-02-14T01:37:54;100757.81;;;8.42;71.46
26657;BME280;14279;50.010;8.260;2024-02-14T01:40:19;100754.59;;;8.34;71.72
26657;BME280;14279;50.010;8.260;2024-02-14T01:42:45;100763.22;;;8.35;72.19
26657;BME280;14279;50.010;8.260;2024-02-14T01:45:10;100765.81;;;8.35;72.21
26657;BME280;14279;50.010;8.260;2024-02-14T01:47:35;100755.44;;;8.35;72.22
26657;BME280;14279;50.010;8.260;2024-02-14T01:50:01;100756.19;;;8.38;71.89
26657;BME280;14279;50.010;8.260;2024-02-14T01:52:26;100747.50;;;8.39;71.31
26657;BME280;14279;50.010;8.260;2024-02-14T01:54:52;100749.94;;;8.17;72.12
26657;BME280;14279;50.010;8.260;2024-02-14T01:57:20;100748.91;;;8.21;72.46
26657;BME280;14279;50.010;8.260;2024-02-14T01:59:46;100744.25;;;8.04;73.01
26657;BME280;14279;50.010;8.260;2024-02-14T02:02:12;100740.66;;;8.08;72.83
26657;BME280;14279;50.010;8.260;2024-02-14T02:04:38;100734.63;;;8.08;72.61
26657;BME280;14279;50.010;8.260;2024-02-14T02:07:04;100732.13;;;8.05;72.49
26657;BME280;14279;50.010;8.260;2024-02-14T02:09:29;100723.53;;;8.04;72.92
26657;BME280;14279;50.010;8.260;2024-02-14T02:11:56;100732.78;;;8.11;72.45
26657;BME280;14279;50.010;8.260;2024-02-14T02:14:22;100737.06;;;8.14;72.77
26657;BME280;14279;50.010;8.260;2024-02-14T02:16:47;100726.63;;;8.16;72.39
26657;BME280;14279;50.010;8.260;2024-02-14T02:19:13;100724.19;;;8.11;72.15
26657;BME280;14279;50.010;8.260;2024-02-14T02:21:41;100731.72;;;8.19;71.80
26657;BME280;14279;50.010;8.260;2024-02-14T02:24:08;100728.22;;;8.20;72.28
26657;BME280;14279;50.010;8.260;2024-02-14T02:26:33;100727.66;;;8.10;72.50
26657;BME280;14279;50.010;8.260;2024-02-14T02:28:58;100731.06;;;8.12;72.30
26657;BME280;14279;50.010;8.260;2024-02-14T02:31:24;100731.06;;;8.12;72.47
26657;BME280;14279;50.010;8.260;2024-02-14T02:33:50;100734.88;;;8.28;72.25
26657;BME280;14279;50.010;8.260;2024-02-14T02:36:16;100725.56;;;8.21;72.31
26657;BME280;14279;50.010;8.260;2024-02-14T02:39:31;100731.91;;;8.12;72.52
26657;BME280;14279;50.010;8.260;2024-02-14T02:41:59;100736.06;;;8.18;72.44
26657;BME280;14279;50.010;8.260;2024-02-14T02:44:24;100743.88;;;8.17;72.89
26657;BME280;14279;50.010;8.260;2024-02-14T02:46:50;100740.34;;;8.19;72.86
26657;BME280;14279;50.010;8.260;2024-02-14T02:49:15;100736.81;;;8.22;73.11
26657;BME280;14279;50.010;8.260;2024-02-14T02:51:41;100741.28;;;8.17;73.38
26657;BME280;14279;50.010;8.260;2024-02-14T02:54:06;100744.28;;;8.31;72.86
26657;BME280;14279;50.010;8.260;2024-02-14T02:56:33;100746.53;;;8.43;72.49
26657;BME280;14279;50.010;8.260;2024-02-14T02:58:58;100742.09;;;8.47;72.24
26657;BME280;14279;50.010;8.260;2024-02-14T03:01:24;100741.28;;;8.45;72.14
26657;BME280;14279;50.010;8.260;2024-02-14T03:03:50;100726.66;;;8.42;73.02
26657;BME280;14279;50.010;8.260;2024-02-14T03:06:15;100732.13;;;8.33;73.83
26657;BME280;14279;50.010;8.260;2024-02-14T03:08:41;100739.91;;;8.33;74.05
26657;BME280;14279;50.010;8.260;2024-02-14T03:11:06;100741.13;;;8.21;74.25
26657;BME280;14279;50.010;8.260;2024-02-14T03:13:32;100735.78;;;8.27;74.15
26657;BME280;14279;50.010;8.260;2024-02-14T03:15:57;100733.47;;;8.18;74.47
26657;BME280;14279;50.010;8.260;2024-02-14T03:18:24;100733.78;;;8.07;74.67
26657;BME280;14279;50.010;8.260;2024-02-14T03:20:49;100733.09;;;8.02;75.06
26657;BME280;14279;50.010;8.260;2024-02-14T03:23:19;100737.53;;;7.97;75.19
26657;BME280;14279;50.010;8.260;2024-02-14T03:25:44;100735.78;;;7.97;75.01
26657;BME280;14279;50.010;8.260;2024-02-14T03:28:09;100739.97;;;8.03;74.65
26657;BME280;14279;50.010;8.260;2024-02-14T03:30:35;100736.69;;;7.96;75.10
26657;BME280;14279;50.010;8.260;2024-02-14T03:33:01;100738.78;;;8.13;74.74
26657;BME280;14279;50.010;8.260;2024-02-14T03:35:27;100738.03;;;8.10;74.77
26657;BME280;14279;50.010;8.260;2024-02-14T03:37:52;100742.81;;;7.94;75.22
26657;BME280;14279;50.010;8.260;2024-02-14T03:40:18;100745.63;;;7.86;75.99
26657;BME280;14279;50.010;8.260;2024-02-14T03:42:45;100743.06;;;7.85;75.95
26657;BME280;14279;50.010;8.260;2024-02-14T03:45:11;100739.56;;;7.87;76.17
26657;BME280;14279;50.010;8.260;2024-02-14T03:47:37;100748.16;;;7.88;76.23
26657;BME280;14279;50.010;8.260;2024-02-14T03:50:07;100753.00;;;8.00;76.12
26657;BME280;14279;50.010;8.260;2024-02-14T03:52:32;100742.56;;;8.03;76.12
26657;BME280;14279;50.010;8.260;2024-02-14T03:54:59;100738.59;;;7.91;76.40
26657;BME280;14279;50.010;8.260;2024-02-14T03:57:25;100742.09;;;7.89;76.77
26657;BME280;14279;50.010;8.260;2024-02-14T03:59:50;100748.53;;;7.75;77.12
26657;BME280;14279;50.010;8.260;2024-02-14T04:02:16;100750.34;;;7.72;77.57
26657;BME280;14279;50.010;8.260;2024-02-14T04:04:41;100759.72;;;7.76;77.71
26657;BME280;14279;50.010;8.260;2024-02-14T04:07:07;100758.41;;;7.61;78.24
26657;BME280;14279;50.010;8.260;2024-02-14T04:09:36;100770.38;;;7.66;78.39
26657;BME280;14279;50.010;8.260;2024-02-14T04:12:01;100761.41;;;7.78;77.96
26657;BME280;14279;50.010;8.260;2024-02-14T04:14:26;100766.41;;;7.85;77.93
26657;BME280;14279;50.010;8.260;2024-02-14T04:16:52;100764.53;;;7.90;77.71
26657;BME280;14279;50.010;8.260;2024-02-14T04:19:17;100767.22;;;7.87;77.71
26657;BME280;14279;50.010;8.260;2024-02-14T04:21:43;100773.19;;;7.89;77.69
26657;BME280;14279;50.010;8.260;2024-02-14T04:24:08;100772.81;;;8.03;77.33
26657;BME280;14279;50.010;8.260;2024-02-14T04:26:34;100780.44;;;8.07;77.25
26657;BME280;14279;50.010;8.260;2024-02-14T04:28:59;100769.72;;;8.20;76.79
26657;BME280;14279;50.010;8.260;2024-02-14T04:31:25;100770.63;;;8.19;76.97
26657;BME280;14279;50.010;8.260;2024-02-14T04:33:52;100777.59;;;8.17;76.51
26657;BME280;14279;50.010;8.260;2024-02-14T04:36:18;100769.72;;;8.20;76.62
26657;BME280;14279;50.010;8.260;2024-02-14T04:38:46;100770.38;;;8.26;76.23
26657;BME280;14279;50.010;8.260;2024-02-14T04:41:12;100766.25;;;8.21;76.61
26657;BME280;14279;50.010;8.260;2024-02-14T04:43:37;100779.16;;;8.22;76.97
26657;BME280;14279;50.010;8.260;2024-02-14T04:46:02;100774.97;;;8.18;77.29
26657;BME280;14279;50.010;8.260;2024-02-14T04:48:32;100771.25;;;8.27;77.39
26657;BME280;14279;50.010;8.260;2024-02-14T04:50:57;100773.97;;;8.22;77.72
26657;BME280;14279;50.010;8.260;2024-02-14T04:53:22;100762.03;;;8.17;78.01
26657;BME280;14279;50.010;8.260;2024-02-14T04:55:48;100757.66;;;8.19;77.03
26657;BME280;14279;50.010;8.260;2024-02-14T04:58:13;100769.81;;;8.17;78.38
26657;BME280;14279;50.010;8.260;2024-02-14T05:00:38;100770.44;;;8.25;78.27
26657;BME280;14279;50.010;8.260;2024-02-14T05:03:05;100757.31;;;8.30;77.95
26657;BME280;14279;50.010;8.260;2024-02-14T05:05:30;100756.25;;;8.37;77.36
26657;BME280;14279;50.010;8.260;2024-02-14T05:07:55;100739.00;;;8.36;77.32
26657;BME280;14279;50.010;8.260;2024-02-14T05:10:21;100739.72;;;8.41;77.34
26657;BME280;14279;50.010;8.260;2024-02-14T05:12:46;100736.50;;;8.33;78.24
26657;BME280;14279;50.010;8.260;2024-02-14T05:15:12;100741.47;;;8.10;79.40
26657;BME280;14279;50.010;8.260;2024-02-14T05:17:38;100742.97;;;8.18;78.54
26657;BME280;14279;50.010;8.260;2024-02-14T05:20:05;100748.31;;;8.13;79.21
26657;BME280;14279;50.010;8.260;2024-02-14T05:22:35;100754.66;;;8.33;78.71
26657;BME280;14279;50.010;8.260;2024-02-14T05:25:00;100758.88;;;8.35;78.31
26657;BME280;14279;50.010;8.260;2024-02-14T05:27:25;100751.88;;;8.39;78.54
26657;BME280;14279;50.010;8.260;2024-02-14T05:29:51;100752.06;;;8.31;78.35
26657;BME280;14279;50.010;8.260;2024-02-14T05:32:16;100754.69;;;8.31;78.52
26657;BME280;14279;50.010;8.260;2024-02-14T05:34:41;100757.31;;;8.30;78.70
26657;BME280;14279;50.010;8.260;2024-02-14T05:37:07;100757.31;;;8.30;78.59
26657;BME280;14279;50.010;8.260;2024-02-14T05:39:33;100759.13;;;8.27;78.93
26657;BME280;14279;50.010;8.260;2024-02-14T05:41:59;100757.41;;;8.26;79.01
26657;BME280;14279;50.010;8.260;2024-02-14T05:44:24;100756.59;;;8.26;79.48
26657;BME280;14279;50.010;8.260;2024-02-14T05:46:51;100763.47;;;8.27;79.66
26657;BME280;14279;50.010;8.260;2024-02-14T05:49:16;100760.06;;;8.25;79.67
26657;BME280;14279;50.010;8.260;2024-02-14T05:51:42;100758.59;;;8.16;80.20
26657;BME280;14279;50.010;8.260;2024-02-14T05:54:07;100763.59;;;8.22;80.56
26657;BME280;14279;50.010;8.260;2024-02-14T05:56:32;100765.34;;;8.22;80.58
26657;BME280;14279;50.010;8.260;2024-02-14T05:58:58;100772.88;;;8.30;80.35
26657;BME280;14279;50.010;8.260;2024-02-14T06:01:23;100770.34;;;8.28;80.78
26657;BME280;14279;50.010;8.260;2024-02-14T06:03:48;100768.44;;;8.33;80.55
26657;BME280;14279;50.010;8.260;2024-02-14T06:06:14;100769.41;;;8.31;81.03
26657;BME280;14279;50.010;8.260;2024-02-14T06:08:39;100772.66;;;8.37;80.72
26657;BME280;14279;50.010;8.260;2024-02-14T06:11:04;100765.75;;;8.36;80.98
26657;BME280;14279;50.010;8.260;2024-02-14T06:13:29;100772.38;;;8.47;80.56
26657;BME280;14279;50.010;8.260;2024-02-14T06:15:54;100771.03;;;8.33;80.97
26657;BME280;14279;50.010;8.260;2024-02-14T06:18:20;100769.88;;;8.43;81.33
26657;BME280;14279;50.010;8.260;2024-02-14T06:20:45;100781.09;;;8.44;81.11
26657;BME280;14279;50.010;8.260;2024-02-14T06:23:12;100779.38;;;8.45;80.96
26657;BME280;14279;50.010;8.260;2024-02-14T06:25:37;100774.53;;;8.62;80.83
26657;BME280;14279;50.010;8.260;2024-02-14T06:28:02;100780.69;;;8.58;80.84
26657;BME280;14279;50.010;8.260;2024-02-14T06:30:28;100790.91;;;8.64;80.76
26657;BME280;14279;50.010;8.260;2024-02-14T06:32:53;100792.69;;;8.62;80.88
26657;BME280;14279;50.010;8.260;2024-02-14T06:35:18;100796.38;;;8.55;81.30
26657;BME280;14279;50.010;8.260;2024-02-14T06:37:46;100797.97;;;8.59;81.25
26657;BME280;14279;50.010;8.260;2024-02-14T06:40:11;100799.56;;;8.65;81.25
26657;BME280;14279;50.010;8.260;2024-02-14T06:42:37;100810.69;;;8.68;81.08
26657;BME280;14279;50.010;8.260;2024-02-14T06:45:03;100807.84;;;8.76;81.03
26657;BME280;14279;50.010;8.260;2024-02-14T06:47:28;100810.09;;;8.87;80.92
26657;BME280;14279;50.010;8.260;2024-02-14T06:49:55;100811.09;;;8.83;80.52
26657;BME280;14279;50.010;8.260;2024-02-14T06:52:21;100804.25;;;8.80;80.53
26657;BME280;14279;50.010;8.260;2024-02-14T06:54:46;100825.41;;;8.95;80.27
26657;BME280;14279;50.010;8.260;2024-02-14T06:57:13;100821.44;;;9.11;79.83
26657;BME280;14279;50.010;8.260;2024-02-14T06:59:38;100822.03;;;8.93;79.97
26657;BME280;14279;50.010;8.260;2024-02-14T07:02:04;100813.03;;;9.03;79.74
26657;BME280;14279;50.010;8.260;2024-02-14T07:04:30;100822.81;;;8.95;80.36
26657;BME280;14279;50.010;8.260;2024-02-14T07:06:56;100821.09;;;8.95;80.40
26657;BME280;14279;50.010;8.260;2024-02-14T07:09:21;100823.38;;;9.05;79.72
26657;BME280;14279;50.010;8.260;2024-02-14T07:11:46;100818.88;;;9.10;79.84
26657;BME280;14279;50.010;8.260;2024-02-14T07:14:12;100818.09;;;9.08;79.79
26657;BME280;14279;50.010;8.260;2024-02-14T07:16:37;100822.03;;;9.20;79.60
26657;BME280;14279;50.010;8.260;2024-02-14T07:19:03;100828.78;;;8.98;80.37
26657;BME280;14279;50.010;8.260;2024-02-14T07:21:28;100840.56;;;9.09;80.21
26657;BME280;14279;50.010;8.260;2024-02-14T07:23:53;100844.66;;;9.16;79.99
26657;BME280;14279;50.010;8.260;2024-02-14T07:26:19;100845.25;;;8.97;80.82
26657;BME280;14279;50.010;8.260;2024-02-14T07:28:44;100844.91;;;9.08;80.68
26657;BME280;14279;50.010;8.260;2024-02-14T07:31:09;100843.31;;;9.04;80.90
26657;BME280;14279;50.010;8.260;2024-02-14T07:33:35;100833.22;;;8.95;81.88
26657;BME280;14279;50.010;8.260;2024-02-14T07:36:00;100842.22;;;8.83;82.37
26657;BME280;14279;50.010;8.260;2024-02-14T07:38:37;100834.44;;;8.83;82.86
26657;BME280;14279;50.010;8.260;2024-02-14T07:44:10;100837.03;;;8.83;83.51
26657;BME280;14279;50.010;8.260;2024-02-14T07:46:36;100836.56;;;8.98;83.30
26657;BME280;14279;50.010;8.260;2024-02-14T07:49:06;100835.78;;;8.96;83.20
26657;BME280;14279;50.010;8.260;2024-02-14T07:52:02;100848.78;;;8.95;83.44
26657;BME280;14279;50.010;8.260;2024-02-14T07:55:19;100853.97;;;8.95;83.53
26657;BME280;14279;50.010;8.260;2024-02-14T07:57:48;100852.25;;;8.95;83.61
26657;BME280;14279;50.010;8.260;2024-02-14T08:00:24;100862.38;;;9.03;83.31
26657;BME280;14279;50.010;8.260;2024-02-14T08:02:50;100854.88;;;8.94;84.00
26657;BME280;14279;50.010;8.260;2024-02-14T08:05:16;100855.94;;;8.88;84.11
26657;BME280;14279;50.010;8.260;2024-02-14T08:07:41;100863.56;;;8.93;84.49
26657;BME280;14279;50.010;8.260;2024-02-14T08:14:00;100856.22;;;9.07;84.20
26657;BME280;14279;50.010;8.260;2024-02-14T08:16:25;100859.69;;;9.06;84.20
26657;BME280;14279;50.010;8.260;2024-02-14T08:18:51;100861.06;;;9.18;83.96
26657;BME280;14279;50.010;8.260;2024-02-14T08:21:18;100861.88;;;9.18;84.02
26657;BME280;14279;50.010;8.260;2024-02-14T08:23:43;100857.00;;;9.09;84.20
26657;BME280;14279;50.010;8.260;2024-02-14T08:26:08;100854.75;;;8.98;84.88
26657;BME280;14279;50.010;8.260;2024-02-14T08:28:38;100859.72;;;9.05;84.93
26657;BME280;14279;50.010;8.260;2024-02-14T08:31:12;100863.66;;;9.18;84.48
26657;BME280;14279;50.010;8.260;2024-02-14T08:33:37;100862.19;;;9.09;85.04
26657;BME280;14279;50.010;8.260;2024-02-14T08:36:04;100860.88;;;8.96;85.99
26657;BME280;14279;50.010;8.260;2024-02-14T08:38:29;100858.19;;;8.99;85.84
26657;BME280;14279;50.010;8.260;2024-02-14T08:40:54;100862.22;;;9.08;85.71
26657;BME280;14279;50.010;8.260;2024-02-14T08:43:20;100862.03;;;9.14;85.90
26657;BME280;14279;50.010;8.260;2024-02-14T08:45:45;100870.69;;;9.14;85.95
26657;BME280;14279;50.010;8.260;2024-02-14T08:48:10;100877.00;;;9.06;86.69
26657;BME280;14279;50.010;8.260;2024-02-14T08:50:36;100878.81;;;9.03;87.16
26657;BME280;14279;50.010;8.260;2024-02-14T08:53:02;100878.34;;;9.19;86.55
26657;BME280;14279;50.010;8.260;2024-02-14T08:55:28;100877.25;;;9.26;85.98
26657;BME280;14279;50.010;8.260;2024-02-14T08:58:23;100883.22;;;9.28;86.03
26657;BME280;14279;50.010;8.260;2024-02-14T09:01:29;100879.88;;;9.25;86.45
26657;BME280;14279;50.010;8.260;2024-02-14T09:04:10;100881.19;;;9.38;86.11
26657;BME280;14279;50.010;8.260;2024-02-14T09:06:38;100882.47;;;9.25;86.58
26657;BME280;14279;50.010;8.260;2024-02-14T09:09:30;100880.34;;;9.38;86.44
26657;BME280;14279;50.010;8.260;2024-02-14T09:12:56;100877.56;;;9.42;86.29
26657;BME280;14279;50.010;8.260;2024-02-14T09:18:59;100871.91;;;9.56;86.28
26657;BME280;14279;50.010;8.260;2024-02-14T09:21:24;100864.75;;;9.63;85.72
26657;BME280;14279;50.010;8.260;2024-02-14T09:23:49;100864.38;;;9.48;86.66
26657;BME280;14279;50.010;8.260;2024-02-14T09:26:15;100863.78;;;9.40;87.36
26657;BME280;14279;50.010;8.260;2024-02-14T09:28:46;100872.16;;;9.50;87.10
26657;BME280;14279;50.010;8.260;2024-02-14T09:31:20;100869.75;;;9.69;86.55
26657;BME280;14279;50.010;8.260;2024-02-14T09:33:48;100872.97;;;9.76;86.54
26657;BME280;14279;50.010;8.260;2024-02-14T09:36:21;100872.50;;;9.90;85.62
26657;BME280;14279;50.010;8.260;2024-02-14T09:38:46;100873.13;;;9.73;85.75
26657;BME280;14279;50.010;8.260;2024-02-14T09:41:17;100878.03;;;9.81;86.11
26657;BME280;14279;50.010;8.260;2024-02-14T09:43:47;100880.00;;;9.99;85.37
26657;BME280;14279;50.010;8.260;2024-02-14T09:46:14;100875.28;;;9.85;85.53
26657;BME280;14279;50.010;8.260;2024-02-14T09:48:46;100878.59;;;9.89;85.65
26657;BME280;14279;50.010;8.260;2024-02-14T09:51:12;100879.88;;;9.77;86.26
26657;BME280;14279;50.010;8.260;2024-02-14T09:53:38;100872.66;;;9.85;86.27
26657;BME280;14279;50.010;8.260;2024-02-14T09:56:10;100880.38;;;9.88;85.68
26657;BME280;14279;50.010;8.260;2024-02-14T09:58:37;100885.84;;;9.81;85.70
26657;BME280;14279;50.010;8.260;2024-02-14T10:01:03;100887.19;;;9.91;85.13
26657;BME280;14279;50.010;8.260;2024-02-14T10:03:29;100878.63;;;10.13;84.05
26657;BME280;14279;50.010;8.260;2024-02-14T10:05:55;100879.69;;;10.08;84.24
26657;BME280;14279;50.010;8.260;2024-02-14T10:08:21;100877.34;;;10.25;83.57
26657;BME280;14279;50.010;8.260;2024-02-14T10:10:49;100879.91;;;10.26;83.37
26657;BME280;14279;50.010;8.260;2024-02-14T10:13:15;100886.63;;;10.32;83.61
26657;BME280;14279;50.010;8.260;2024-02-14T10:15:43;100888.56;;;10.50;82.24
26657;BME280;14279;50.010;8.260;2024-02-14T10:18:08;100897.34;;;10.48;82.23
26657;BME280;14279;50.010;8.260;2024-02-14T10:20:35;100893.34;;;10.39;82.91
26657;BME280;14279;50.010;8.260;2024-02-14T10:23:05;100891.03;;;10.55;81.73
26657;BME280;14279;50.010;8.260;2024-02-14T10:25:31;100892.84;;;10.75;81.40
26657;BME280;14279;50.010;8.260;2024-02-14T10:28:06;100897.06;;;10.56;81.90
26657;BME280;14279;50.010;8.260;2024-02-14T10:30:36;100904.53;;;10.65;81.62
26657;BME280;14279;50.010;8.260;2024-02-14T10:33:03;100909.97;;;10.59;82.08
26657;BME280;14279;50.010;8.260;2024-02-14T10:35:30;100913.34;;;10.37;82.64
26657;BME280;14279;50.010;8.260;2024-02-14T10:37:58;100915.69;;;10.45;82.86
26657;BME280;14279;50.010;8.260;2024-02-14T10:40:31;100910.66;;;10.64;81.92
26657;BME280;14279;50.010;8.260;2024-02-14T10:42:57;100917.50;;;10.66;82.30
26657;BME280;14279;50.010;8.260;2024-02-14T10:45:24;100913.06;;;10.68;81.95
26657;BME280;14279;50.010;8.260;2024-02-14T10:47:51;100903.22;;;10.77;81.27
26657;BME280;14279;50.010;8.260;2024-02-14T10:50:17;100904.94;;;10.78;81.99
26657;BME280;14279;50.010;8.260;2024-02-14T10:52:44;100907.66;;;10.97;80.93
26657;BME280;14279;50.010;8.260;2024-02-14T10:55:11;100905.91;;;10.97;81.15
26657;BME280;14279;50.010;8.260;2024-02-14T10:57:37;100908.56;;;10.96;81.20
26657;BME280;14279;50.010;8.260;2024-02-14T11:00:07;100909.53;;;10.93;81.32
26657;BME280;14279;50.010;8.260;2024-02-14T11:02:34;100905.03;;;10.75;82.08
26657;BME280;14279;50.010;8.260;2024-02-14T11:05:02;100897.25;;;10.51;83.26
26657;BME280;14279;50.010;8.260;2024-02-14T11:07:27;100895.63;;;10.71;83.03
26657;BME280;14279;50.010;8.260;2024-02-14T11:10:07;100900.84;;;10.71;82.30
26657;BME280;14279;50.010;8.260;2024-02-14T11:12:34;100904.84;;;10.79;82.13
26657;BME280;14279;50.010;8.260;2024-02-14T11:15:17;100892.91;;;10.96;81.81
26657;BME280;14279;50.010;8.260;2024-02-14T11:17:43;100887.72;;;10.96;81.75
26657;BME280;14279;50.010;8.260;2024-02-14T11:20:16;100889.97;;;11.05;81.58
26657;BME280;14279;50.010;8.260;2024-02-14T11:22:52;100877.47;;;10.91;81.86
26657;BME280;14279;50.010;8.260;2024-02-14T11:25:18;100872.50;;;11.07;81.25
26657;BME280;14279;50.010;8.260;2024-02-14T11:27:46;100875.91;;;10.87;81.76
26657;BME280;14279;50.010;8.260;2024-02-14T11:30:12;100887.97;;;10.90;82.08
26657;BME280;14279;50.010;8.260;2024-02-14T11:32:37;100879.84;;;10.97;82.24
26657;BME280;14279;50.010;8.260;2024-02-14T11:35:11;100891.41;;;10.90;82.30
26657;BME280;14279;50.010;8.260;2024-02-14T11:37:36;100882.69;;;10.91;82.40
26657;BME280;14279;50.010;8.260;2024-02-14T11:40:01;100878.38;;;10.90;83.33
26657;BME280;14279;50.010;8.260;2024-02-14T11:42:27;100881.59;;;10.97;83.06
26657;BME280;14279;50.010;8.260;2024-02-14T11:44:52;100879.53;;;11.05;82.89
26657;BME280;14279;50.010;8.260;2024-02-14T11:47:19;100883.13;;;11.03;83.07
26657;BME280;14279;50.010;8.260;2024-02-14T11:49:44;100887.56;;;11.01;83.32
26657;BME280;14279;50.010;8.260;2024-02-14T11:52:11;100885.97;;;10.96;83.53
26657;BME280;14279;50.010;8.260;2024-02-14T11:54:37;100880.44;;;11.04;83.47
26657;BME280;14279;50.010;8.260;2024-02-14T11:57:03;100872.88;;;10.98;84.32
26657;BME280;14279;50.010;8.260;2024-02-14T11:59:28;100874.09;;;10.89;84.79
26657;BME280;14279;50.010;8.260;2024-02-14T12:01:54;100877.72;;;11.07;84.03
26657;BME280;14279;50.010;8.260;2024-02-14T12:04:23;100882.94;;;11.07;83.94
26657;BME280;14279;50.010;8.260;2024-02-14T12:06:48;100880.13;;;11.12;83.95
26657;BME280;14279;50.010;8.260;2024-02-14T12:09:14;100881.03;;;11.11;84.17
26657;BME280;14279;50.010;8.260;2024-02-14T12:11:41;100874.00;;;11.35;83.26
26657;BME280;14279;50.010;8.260;2024-02-14T12:14:09;100866.41;;;11.51;82.16
26657;BME280;14279;50.010;8.260;2024-02-14T12:16:35;100870.38;;;11.60;81.52
26657;BME280;14279;50.010;8.260;2024-02-14T12:19:06;100872.31;;;11.55;81.85
26657;BME280;14279;50.010;8.260;2024-02-14T12:21:34;100869.63;;;11.56;82.13
26657;BME280;14279;50.010;8.260;2024-02-14T12:24:00;100866.97;;;11.58;82.11
26657;BME280;14279;50.010;8.260;2024-02-14T12:26:25;100864.91;;;11.66;81.96
26657;BME280;14279;50.010;8.260;2024-02-14T12:29:12;100864.56;;;11.53;82.45
26657;BME280;14279;50.010;8.260;2024-02-14T12:31:38;100871.22;;;11.61;82.43
26657;BME280;14279;50.010;8.260;2024-02-14T12:34:03;100860.41;;;11.70;81.67
26657;BME280;14279;50.010;8.260;2024-02-14T12:36:30;100864.94;;;11.85;81.34
26657;BME280;14279;50.010;8.260;2024-02-14T12:38:56;100862.34;;;11.85;81.35
26657;BME280;14279;50.010;8.260;2024-02-14T12:41:21;100870.03;;;11.68;82.13
26657;BME280;14279;50.010;8.260;2024-02-14T12:43:51;100868.44;;;11.65;82.44
26657;BME280;14279;50.010;8.260;2024-02-14T12:46:17;100862.47;;;11.82;81.71
26657;BME280;14279;50.010;8.260;2024-02-14T12:48:42;100856.19;;;11.86;81.66
26657;BME280;14279;50.010;8.260;2024-02-14T12:51:07;100856.59;;;11.98;81.63
26657;BME280;14279;50.010;8.260;2024-02-14T12:53:34;100853.03;;;11.80;82.38
26657;BME280;14279;50.010;8.260;2024-02-14T12:55:59;100868.44;;;11.65;82.94
26657;BME280;14279;50.010;8.260;2024-02-14T12:58:24;100864.16;;;11.63;83.73
26657;BME280;14279;50.010;8.260;2024-02-14T13:00:50;100867.81;;;11.38;84.63
26657;BME280;14279;50.010;8.260;2024-02-14T13:03:15;100872.06;;;11.40;85.03
26657;BME280;14279;50.010;8.260;2024-02-14T13:05:40;100874.16;;;11.53;85.09
26657;BME280;14279;50.010;8.260;2024-02-14T13:08:07;100867.88;;;11.36;85.93